createdAt,value
2019-05-26T00:01:21.886Z,8.00
2019-05-26T00:03:52.422Z,8.50
2019-05-26T00:06:22.959Z,8.30
2019-05-26T00:08:54.311Z,8.40
2019-05-26T00:11:24.886Z,7.90
2019-05-26T00:13:55.539Z,7.85
2019-05-26T00:16:26.803Z,7.87
2019-05-26T00:18:57.408Z,8.05
2019-05-26T00:21:28.073Z,7.40
2019-05-26T00:24:00.099Z,7.85
2019-05-26T00:26:31.396Z,7.83
2019-05-26T00:29:02.431Z,7.92
2019-05-26T00:31:34.294Z,8.55
2019-05-26T00:34:04.871Z,7.97
2019-05-26T00:36:35.398Z,7.50
2019-05-26T00:39:07.387Z,7.17
2019-05-26T00:41:38.141Z,7.20
2019-05-26T00:44:08.763Z,7.12
2019-05-26T00:46:39.198Z,6.87
2019-05-26T00:49:10.220Z,6.62
2019-05-26T00:51:40.952Z,6.80
2019-05-26T00:54:12.395Z,6.22
2019-05-26T00:56:43.873Z,6.50
2019-05-26T00:59:14.810Z,6.17
2019-05-26T01:01:46.286Z,6.20
2019-05-26T01:04:16.908Z,6.10
2019-05-26T01:06:47.503Z,6.10
2019-05-26T01:09:18.081Z,6.22
2019-05-26T01:11:48.775Z,5.97
2019-05-26T01:14:19.335Z,5.67
2019-05-26T01:16:49.929Z,6.10
2019-05-26T01:19:20.495Z,6.67
2019-05-26T01:21:52.153Z,6.05
2019-05-26T01:24:22.838Z,6.40
2019-05-26T01:26:53.429Z,6.40
2019-05-26T01:29:24.430Z,6.42
2019-05-26T01:31:55.951Z,6.90
2019-05-26T01:34:26.975Z,6.67
2019-05-26T01:36:57.693Z,7.10
2019-05-26T01:39:28.439Z,7.08
2019-05-26T01:41:59.583Z,7.25
2019-05-26T01:44:30.144Z,7.50
2019-05-26T01:47:00.766Z,6.90
2019-05-26T01:49:31.467Z,7.62
2019-05-26T01:52:02.099Z,7.67
2019-05-26T01:54:33.079Z,8.10
2019-05-26T01:57:03.299Z,8.35
2019-05-26T01:59:33.893Z,8.15
2019-05-26T02:02:05.051Z,8.33
2019-05-26T02:04:35.558Z,8.93
2019-05-26T02:07:06.095Z,8.75
2019-05-26T02:09:36.546Z,8.90
2019-05-26T02:12:09.199Z,8.85
2019-05-26T02:14:39.848Z,9.50
2019-05-26T02:17:10.475Z,10.58
2019-05-26T02:19:42.605Z,10.15
2019-05-26T02:22:13.746Z,10.18
2019-05-26T02:24:44.359Z,9.73
2019-05-26T02:27:14.845Z,10.30
2019-05-26T02:29:46.516Z,9.95
2019-05-26T02:32:17.019Z,9.95
2019-05-26T02:34:47.571Z,10.45
2019-05-26T02:37:18.080Z,10.45
2019-05-26T02:39:48.568Z,9.63
2019-05-26T02:42:19.810Z,11.15
2019-05-26T02:44:50.441Z,8.63
2019-05-26T02:47:22.355Z,9.00
2019-05-26T02:49:53.350Z,8.83
2019-05-26T02:52:25.099Z,9.50
2019-05-26T02:54:55.709Z,9.45
2019-05-26T02:57:26.313Z,10.73
2019-05-26T02:59:57.417Z,9.98
2019-05-26T03:02:29.070Z,10.75
2019-05-26T03:04:59.719Z,10.68
2019-05-26T03:07:31.390Z,10.60
2019-05-26T03:10:03.865Z,10.43
2019-05-26T03:12:36.900Z,10.55
2019-05-26T03:15:07.770Z,10.70
2019-05-26T03:17:41.479Z,11.03
2019-05-26T03:20:14.898Z,10.50
2019-05-26T03:22:49.050Z,10.67
2019-05-26T03:25:20.241Z,11.08
2019-05-26T03:27:50.945Z,10.90
2019-05-26T03:30:21.961Z,11.33
2019-05-26T03:32:56.127Z,11.03
2019-05-26T03:35:26.848Z,10.85
2019-05-26T03:37:57.392Z,10.75
2019-05-26T03:40:28.110Z,12.93
2019-05-26T03:43:00.219Z,11.22
2019-05-26T03:45:51.396Z,10.28
2019-05-26T03:48:21.866Z,10.90
2019-05-26T03:50:52.508Z,11.38
2019-05-26T03:53:24.232Z,11.30
2019-05-26T03:55:54.876Z,10.98
2019-05-26T03:58:25.384Z,10.93
2019-05-26T04:00:56.646Z,10.90
2019-05-26T04:03:27.152Z,11.53
2019-05-26T04:05:57.705Z,11.15
2019-05-26T04:08:28.701Z,10.75
2019-05-26T04:10:59.185Z,11.30
2019-05-26T04:13:29.708Z,11.15
2019-05-26T04:16:00.242Z,11.60
2019-05-26T04:18:31.097Z,10.85
2019-05-26T04:21:01.728Z,10.95
2019-05-26T04:23:32.512Z,11.30
2019-05-26T04:26:03.051Z,11.55
2019-05-26T04:28:33.675Z,10.93
2019-05-26T04:31:04.517Z,11.35
2019-05-26T04:33:36.973Z,11.00
2019-05-26T04:36:07.937Z,11.83
2019-05-26T04:38:38.576Z,10.73
2019-05-26T04:41:09.245Z,11.10
2019-05-26T04:43:39.858Z,11.43
2019-05-26T04:46:10.386Z,11.55
2019-05-26T04:48:40.911Z,10.83
2019-05-26T04:51:12.191Z,11.00
2019-05-26T04:53:43.389Z,10.53
2019-05-26T04:56:14.341Z,10.90
2019-05-26T04:58:45.048Z,11.45
2019-05-26T05:01:15.605Z,10.65
2019-05-26T05:03:46.144Z,11.00
2019-05-26T05:06:17.009Z,10.88
2019-05-26T05:08:47.541Z,10.65
2019-05-26T05:11:18.134Z,10.88
2019-05-26T05:13:48.745Z,10.75
2019-05-26T05:16:20.108Z,11.12
2019-05-26T05:18:50.698Z,10.75
2019-05-26T05:21:21.431Z,10.78
2019-05-26T05:23:51.997Z,11.08
2019-05-26T05:26:22.778Z,10.90
2019-05-26T05:28:53.248Z,10.95
2019-05-26T05:31:23.991Z,12.25
2019-05-26T05:33:54.622Z,11.20
2019-05-26T05:36:25.858Z,11.48
2019-05-26T05:38:56.471Z,10.70
2019-05-26T05:41:28.533Z,11.43
2019-05-26T05:43:59.134Z,12.20
2019-05-26T05:46:29.807Z,11.88
2019-05-26T05:49:00.961Z,11.63
2019-05-26T05:51:31.587Z,11.78
2019-05-26T05:54:02.694Z,11.78
2019-05-26T05:56:33.258Z,12.63
2019-05-26T05:59:03.792Z,11.53
2019-05-26T06:01:35.390Z,12.05
2019-05-26T06:04:05.958Z,11.63
2019-05-26T06:06:36.492Z,12.30
2019-05-26T06:09:07.818Z,12.30
2019-05-26T06:11:38.772Z,11.90
2019-05-26T06:14:10.974Z,12.73
2019-05-26T06:16:41.643Z,12.53
2019-05-26T06:19:12.330Z,12.05
2019-05-26T06:21:43.522Z,12.75
2019-05-26T06:24:14.372Z,12.37
2019-05-26T06:26:45.104Z,12.95
2019-05-26T06:29:16.408Z,12.13
2019-05-26T06:31:47.800Z,12.68
2019-05-26T06:34:18.487Z,12.88
2019-05-26T06:36:49.569Z,13.10
2019-05-26T06:39:20.885Z,12.80
2019-05-26T06:41:51.487Z,13.27
2019-05-26T06:44:22.023Z,13.35
2019-05-26T06:46:52.544Z,13.58
2019-05-26T06:49:23.428Z,13.13
2019-05-26T06:51:54.221Z,12.68
2019-05-26T06:54:24.890Z,13.53
2019-05-26T06:56:56.028Z,12.80
2019-05-26T06:59:27.142Z,12.90
2019-05-26T07:01:57.820Z,12.60
2019-05-26T07:04:28.315Z,12.58
2019-05-26T07:06:58.822Z,12.77
2019-05-26T07:09:29.660Z,13.30
2019-05-26T07:12:00.724Z,13.65
2019-05-26T07:14:31.494Z,13.05
2019-05-26T07:17:02.939Z,13.38
2019-05-26T07:19:34.135Z,13.70
2019-05-26T07:22:05.753Z,12.90
2019-05-26T07:24:38.488Z,13.30
2019-05-26T07:27:09.685Z,13.05
2019-05-26T07:29:40.290Z,13.10
2019-05-26T07:32:10.994Z,14.10
2019-05-26T07:34:41.671Z,13.78
2019-05-26T07:37:12.536Z,13.55
2019-05-26T07:39:43.243Z,13.22
2019-05-26T07:42:14.233Z,13.15
2019-05-26T07:44:44.986Z,12.95
2019-05-26T07:47:16.101Z,13.48
2019-05-26T07:49:47.125Z,13.10
2019-05-26T07:52:17.826Z,12.63
2019-05-26T07:54:48.581Z,12.80
2019-05-26T07:57:19.808Z,12.80
2019-05-26T07:59:56.879Z,12.95
2019-05-26T08:02:29.775Z,13.08
2019-05-26T08:05:01.292Z,12.75
2019-05-26T08:07:33.318Z,13.00
2019-05-26T08:10:06.280Z,11.70
2019-05-26T08:12:37.023Z,12.63
2019-05-26T08:15:08.585Z,12.37
2019-05-26T08:17:39.931Z,12.00
2019-05-26T08:20:13.747Z,12.45
2019-05-26T08:22:44.601Z,12.58
2019-05-26T08:25:15.597Z,12.10
2019-05-26T08:27:46.698Z,11.68
2019-05-26T08:30:19.037Z,12.07
2019-05-26T08:32:50.208Z,11.40
2019-05-26T08:35:24.215Z,11.30
2019-05-26T08:37:55.616Z,11.22
2019-05-26T08:40:26.596Z,10.90
2019-05-26T08:42:57.983Z,10.70
2019-05-26T08:45:29.286Z,11.22
2019-05-26T08:47:59.803Z,11.00
2019-05-26T08:50:34.152Z,10.90
2019-05-26T08:53:03.888Z,10.82
2019-05-26T08:55:34.834Z,10.45
2019-05-26T08:58:06.804Z,9.75
2019-05-26T09:00:39.304Z,9.85
2019-05-26T09:03:10.620Z,9.57
2019-05-26T09:05:42.243Z,9.93
2019-05-26T09:08:13.171Z,9.88
2019-05-26T09:10:45.474Z,9.90
2019-05-26T09:13:16.052Z,9.53
2019-05-26T09:15:48.172Z,9.33
2019-05-26T09:18:18.739Z,9.43
2019-05-26T09:20:50.284Z,9.08
2019-05-26T09:23:21.510Z,9.43
2019-05-26T09:25:52.018Z,9.43
2019-05-26T09:28:23.359Z,9.13
2019-05-26T09:30:53.892Z,9.00
2019-05-26T09:33:26.885Z,8.28
2019-05-26T09:35:57.463Z,8.58
2019-05-26T09:38:28.236Z,8.50
2019-05-26T09:40:59.787Z,8.93
2019-05-26T09:43:30.766Z,8.70
2019-05-26T09:46:02.125Z,8.95
2019-05-26T09:48:33.720Z,8.83
2019-05-26T09:51:04.488Z,8.60
2019-05-26T09:53:35.190Z,9.43
2019-05-26T09:56:06.362Z,8.08
2019-05-26T09:58:37.646Z,8.40
2019-05-26T10:01:08.768Z,8.03
2019-05-26T10:03:40.012Z,7.90
2019-05-26T10:06:11.583Z,7.80
2019-05-26T10:08:42.177Z,7.87
2019-05-26T10:11:13.328Z,7.65
2019-05-26T10:13:44.575Z,7.90
2019-05-26T10:16:15.070Z,7.70
2019-05-26T10:18:46.444Z,7.87
2019-05-26T10:21:19.470Z,8.00
2019-05-26T10:23:53.053Z,7.97
2019-05-26T10:26:23.537Z,7.75
2019-05-26T10:28:55.291Z,7.10
2019-05-26T10:31:25.853Z,7.60
2019-05-26T10:33:57.646Z,6.90
2019-05-26T10:36:29.332Z,7.87
2019-05-26T10:39:01.721Z,7.10
2019-05-26T10:41:32.312Z,7.30
2019-05-26T10:44:04.667Z,7.33
2019-05-26T10:46:35.585Z,7.00
2019-05-26T10:49:06.254Z,6.40
2019-05-26T10:51:38.003Z,6.20
2019-05-26T10:54:08.755Z,5.87
2019-05-26T10:56:39.981Z,6.43
2019-05-26T10:59:11.088Z,6.08
2019-05-26T11:01:43.424Z,5.95
2019-05-26T11:04:14.042Z,6.87
2019-05-26T11:06:45.171Z,6.30
2019-05-26T11:09:16.142Z,6.62
2019-05-26T11:11:47.926Z,6.57
2019-05-26T11:14:27.814Z,6.33
2019-05-26T11:17:55.745Z,5.78
2019-05-26T11:20:26.812Z,6.37
2019-05-26T11:22:57.379Z,6.50
2019-05-26T11:25:30.204Z,5.40
2019-05-26T11:28:00.795Z,5.45
2019-05-26T11:30:31.323Z,6.30
2019-05-26T11:33:01.954Z,5.77
2019-05-26T11:35:32.559Z,4.90
2019-05-26T11:38:03.879Z,5.58
2019-05-26T11:40:34.399Z,6.00
2019-05-26T11:43:16.352Z,5.10
2019-05-26T11:45:37.163Z,4.92
2019-05-26T11:48:07.599Z,4.90
2019-05-26T11:50:38.955Z,5.15
2019-05-26T11:53:10.247Z,4.83
2019-05-26T11:55:41.088Z,5.30
2019-05-26T11:58:11.703Z,5.28
2019-05-26T12:00:42.804Z,5.70
2019-05-26T12:03:13.997Z,5.00
2019-05-26T12:05:45.534Z,5.10
2019-05-26T12:08:16.663Z,5.65
2019-05-26T12:10:48.184Z,4.60
2019-05-26T12:13:19.427Z,4.83
2019-05-26T12:15:50.320Z,4.78
2019-05-26T12:18:21.233Z,4.78
2019-05-26T12:20:51.843Z,4.90
2019-05-26T12:23:23.117Z,4.97
2019-05-26T12:25:54.688Z,4.80
2019-05-26T12:28:25.311Z,4.45
2019-05-26T12:30:55.818Z,4.92
2019-05-26T12:33:26.829Z,4.50
2019-05-26T12:35:57.481Z,4.60
2019-05-26T12:38:28.359Z,4.83
2019-05-26T12:40:58.944Z,4.62
2019-05-26T12:43:29.466Z,4.60
2019-05-26T12:46:00.036Z,3.95
2019-05-26T12:48:30.778Z,4.40
2019-05-26T12:51:01.568Z,4.90
2019-05-26T12:53:32.828Z,4.75
2019-05-26T12:56:03.343Z,4.50
2019-05-26T12:58:34.294Z,4.90
2019-05-26T13:01:05.161Z,4.28
2019-05-26T13:03:36.497Z,4.42
2019-05-26T13:06:08.439Z,4.40
2019-05-26T13:08:42.157Z,4.33
2019-05-26T13:11:13.004Z,4.20
2019-05-26T13:13:44.555Z,4.60
2019-05-26T13:16:16.114Z,4.00
2019-05-26T13:18:47.232Z,4.37
2019-05-26T13:21:17.876Z,4.22
2019-05-26T13:23:49.770Z,4.58
2019-05-26T13:26:21.636Z,4.50
2019-05-26T13:28:53.610Z,4.10
2019-05-26T13:31:24.944Z,6.67
2019-05-26T13:33:56.600Z,4.37
2019-05-26T13:36:27.131Z,3.62
2019-05-26T13:38:58.101Z,3.80
2019-05-26T13:41:29.632Z,3.70
2019-05-26T13:44:00.769Z,4.12
2019-05-26T13:46:32.237Z,4.40
2019-05-26T13:49:05.470Z,3.75
2019-05-26T13:51:36.207Z,4.30
2019-05-26T13:54:07.629Z,3.77
2019-05-26T13:56:39.054Z,4.25
2019-05-26T13:59:10.424Z,3.92
2019-05-26T14:01:44.215Z,3.90
2019-05-26T14:04:37.555Z,3.75
2019-05-26T14:07:11.202Z,3.67
2019-05-26T14:09:44.914Z,3.72
2019-05-26T14:12:18.290Z,3.87
2019-05-26T14:14:49.935Z,3.92
2019-05-26T14:17:21.551Z,3.83
2019-05-26T14:19:54.187Z,3.58
2019-05-26T14:22:25.443Z,4.80
2019-05-26T14:24:56.247Z,3.70
2019-05-26T14:27:27.544Z,3.83
2019-05-26T14:29:58.864Z,3.80
2019-05-26T14:32:29.595Z,4.20
2019-05-26T14:35:48.331Z,3.90
2019-05-26T14:38:22.314Z,4.15
2019-05-26T14:40:53.299Z,4.75
2019-05-26T14:43:24.505Z,4.70
2019-05-26T14:46:15.159Z,4.53
2019-05-26T14:48:47.979Z,5.00
2019-05-26T14:51:25.330Z,4.90
2019-05-26T14:53:57.771Z,4.90
2019-05-26T14:56:28.495Z,4.50
2019-05-26T14:59:00.274Z,4.62
2019-05-26T15:01:31.300Z,4.65
2019-05-26T15:04:01.768Z,5.45
2019-05-26T15:06:32.270Z,4.50
2019-05-26T15:09:03.942Z,5.28
2019-05-26T15:11:34.481Z,8.27
2019-05-26T15:14:05.019Z,4.97
2019-05-26T15:16:35.610Z,4.40
2019-05-26T15:19:06.784Z,5.03
2019-05-26T15:21:38.276Z,6.35
2019-05-26T15:24:08.879Z,4.70
2019-05-26T15:26:40.118Z,5.50
2019-05-26T15:29:11.061Z,4.70
2019-05-26T15:31:41.765Z,4.80
2019-05-26T15:34:13.141Z,5.08
2019-05-26T15:36:43.793Z,4.57
2019-05-26T15:39:14.601Z,4.75
2019-05-26T15:41:45.883Z,4.72
2019-05-26T15:44:21.656Z,4.67
2019-05-26T15:46:52.269Z,4.60
2019-05-26T15:49:23.397Z,5.83
2019-05-26T15:51:54.048Z,5.20
2019-05-26T15:54:25.770Z,6.10
2019-05-26T15:56:57.367Z,4.42
2019-05-26T15:59:28.288Z,4.70
2019-05-26T16:01:59.115Z,5.80
2019-05-26T16:04:29.680Z,4.28
2019-05-26T16:07:00.362Z,4.05
2019-05-26T16:09:31.806Z,4.58
2019-05-26T16:12:02.914Z,4.55
2019-05-26T16:14:33.540Z,4.80
2019-05-26T16:17:04.438Z,4.97
2019-05-26T16:19:35.068Z,4.60
2019-05-26T16:22:06.441Z,5.40
2019-05-26T16:24:37.769Z,4.72
2019-05-26T16:27:18.624Z,4.50
2019-05-26T16:29:41.581Z,4.75
2019-05-26T16:32:12.152Z,4.60
2019-05-26T16:34:43.195Z,5.37
2019-05-26T16:37:13.833Z,4.83
2019-05-26T16:39:44.924Z,5.20
2019-05-26T16:42:15.512Z,4.72
2019-05-26T16:44:46.343Z,4.60
2019-05-26T16:47:17.611Z,4.77
2019-05-26T16:49:49.014Z,5.95
2019-05-26T16:52:20.530Z,4.40
2019-05-26T16:54:51.669Z,4.90
2019-05-26T16:57:22.338Z,6.03
2019-05-26T16:59:53.622Z,5.30
2019-05-26T17:02:27.241Z,4.30
2019-05-26T17:04:58.553Z,4.22
2019-05-26T17:07:30.707Z,4.53
2019-05-26T17:10:01.387Z,4.87
2019-05-26T17:12:32.505Z,5.13
2019-05-26T17:15:03.317Z,4.42
2019-05-26T17:17:34.309Z,6.40
2019-05-26T17:20:06.447Z,5.53
2019-05-26T17:22:37.682Z,4.55
2019-05-26T17:25:08.720Z,4.95
2019-05-26T17:27:40.694Z,4.40
2019-05-26T17:30:11.574Z,4.30
2019-05-26T17:32:42.226Z,4.35
2019-05-26T17:35:13.059Z,4.08
2019-05-26T17:37:44.847Z,4.45
2019-05-26T17:40:16.690Z,4.70
2019-05-26T17:42:48.849Z,4.62
2019-05-26T17:45:19.465Z,4.70
2019-05-26T17:47:49.961Z,6.75
2019-05-26T17:50:20.937Z,4.90
2019-05-26T17:52:51.660Z,5.58
2019-05-26T17:55:22.754Z,4.90
2019-05-26T17:57:53.751Z,4.62
2019-05-26T18:00:24.435Z,4.53
2019-05-26T18:02:55.465Z,7.87
2019-05-26T18:05:26.926Z,6.40
2019-05-26T18:07:57.656Z,4.00
2019-05-26T18:10:28.248Z,4.33
2019-05-26T18:12:59.380Z,4.07
2019-05-26T18:15:31.290Z,4.10
2019-05-26T18:18:02.406Z,4.63
2019-05-26T18:20:35.975Z,4.03
2019-05-26T18:23:08.241Z,5.35
2019-05-26T18:25:39.816Z,4.20
2019-05-26T18:28:10.934Z,4.60
2019-05-26T18:30:41.686Z,9.00
2019-05-26T18:33:12.225Z,4.85
2019-05-26T18:35:44.596Z,4.53
2019-05-26T18:38:15.290Z,4.62
2019-05-26T18:40:45.951Z,4.62
2019-05-26T18:43:17.069Z,4.67
2019-05-26T18:45:50.805Z,4.70
2019-05-26T18:48:21.516Z,4.90
2019-05-26T18:50:52.881Z,4.70
2019-05-26T18:53:24.128Z,4.30
2019-05-26T18:55:54.737Z,4.50
2019-05-26T18:58:25.393Z,5.00
2019-05-26T19:00:56.235Z,4.70
2019-05-26T19:03:26.838Z,5.05
2019-05-26T19:06:03.631Z,5.30
2019-05-26T19:08:35.226Z,5.30
2019-05-26T19:11:05.986Z,5.58
2019-05-26T19:13:38.325Z,5.12
2019-05-26T19:16:10.296Z,5.67
2019-05-26T19:18:41.439Z,5.00
2019-05-26T19:21:12.554Z,5.65
2019-05-26T19:23:43.382Z,5.20
2019-05-26T19:26:14.357Z,5.60
2019-05-26T19:28:46.162Z,5.45
2019-05-26T19:31:17.757Z,5.50
2019-05-26T19:33:48.645Z,6.10
2019-05-26T19:36:20.347Z,6.03
2019-05-26T19:38:52.181Z,5.40
2019-05-26T19:41:24.346Z,5.40
2019-05-26T19:43:55.799Z,6.07
2019-05-26T19:46:27.707Z,6.20
2019-05-26T19:48:59.121Z,6.25
2019-05-26T19:51:31.170Z,6.15
2019-05-26T19:54:03.171Z,6.23
2019-05-26T19:56:33.875Z,6.22
2019-05-26T19:59:04.853Z,6.10
2019-05-26T20:01:37.068Z,6.10
2019-05-26T20:04:07.961Z,6.85
2019-05-26T20:06:38.854Z,6.65
2019-05-26T20:09:10.313Z,6.05
2019-05-26T20:11:40.938Z,5.50
2019-05-26T20:14:11.630Z,6.03
2019-05-26T20:16:43.027Z,6.30
2019-05-26T20:19:14.633Z,5.62
2019-05-26T20:21:45.345Z,5.77
2019-05-26T20:24:15.878Z,6.55
2019-05-26T20:26:46.732Z,6.22
2019-05-26T20:29:17.346Z,6.17
2019-05-26T20:31:49.283Z,7.87
2019-05-26T20:34:19.954Z,6.35
2019-05-26T20:36:51.055Z,6.40
2019-05-26T20:39:22.169Z,6.37
2019-05-26T20:41:52.750Z,6.40
2019-05-26T20:44:23.275Z,6.45
2019-05-26T20:46:53.853Z,6.20
2019-05-26T20:49:24.479Z,6.07
2019-05-26T20:51:55.062Z,6.45
2019-05-26T20:54:26.540Z,6.08
2019-05-26T20:56:59.754Z,6.50
2019-05-26T20:59:30.279Z,6.50
2019-05-26T21:02:00.822Z,6.20
2019-05-26T21:04:31.680Z,7.45
2019-05-26T21:07:04.995Z,6.20
2019-05-26T21:09:36.345Z,6.05
2019-05-26T21:12:10.705Z,6.10
2019-05-26T21:14:41.300Z,6.50
2019-05-26T21:17:11.776Z,6.30
2019-05-26T21:19:42.435Z,6.00
2019-05-26T21:22:13.493Z,6.33
2019-05-26T21:24:44.804Z,6.22
2019-05-26T21:27:15.387Z,6.35
2019-05-26T21:29:45.890Z,5.90
2019-05-26T21:32:16.463Z,6.35
2019-05-26T21:34:47.442Z,5.70
2019-05-26T21:37:18.136Z,5.80
2019-05-26T21:39:48.684Z,5.95
2019-05-26T21:42:19.975Z,6.20
2019-05-26T21:44:51.724Z,5.80
2019-05-26T21:47:23.236Z,5.70
2019-05-26T21:49:53.879Z,6.40
2019-05-26T21:52:24.628Z,6.00
2019-05-26T21:54:56.117Z,5.90
2019-05-26T21:57:27.074Z,6.55
2019-05-26T21:59:57.615Z,6.70
2019-05-26T22:02:28.311Z,6.67
2019-05-26T22:04:58.942Z,6.37
2019-05-26T22:07:29.450Z,6.12
2019-05-26T22:10:00.124Z,6.30
2019-05-26T22:12:30.884Z,6.47
2019-05-26T22:15:01.519Z,6.60
2019-05-26T22:17:32.606Z,6.45
2019-05-26T22:20:03.549Z,6.13
2019-05-26T22:22:36.011Z,6.50
2019-05-26T22:25:06.927Z,6.20
2019-05-26T22:27:37.560Z,6.30
2019-05-26T22:30:09.173Z,5.90
2019-05-26T22:32:40.495Z,6.12
2019-05-26T22:35:11.146Z,6.12
2019-05-26T22:37:41.875Z,6.10
2019-05-26T22:40:12.709Z,6.20
2019-05-26T22:42:43.274Z,6.17
2019-05-26T22:45:14.428Z,6.50
2019-05-26T22:47:45.314Z,6.80
2019-05-26T22:50:16.119Z,6.42
2019-05-26T22:52:46.640Z,6.33
2019-05-26T22:55:17.367Z,6.50
2019-05-26T22:57:48.278Z,5.95
2019-05-26T23:00:19.665Z,6.40
2019-05-26T23:02:51.443Z,6.40
2019-05-26T23:05:22.655Z,5.80
2019-05-26T23:07:53.362Z,6.10
2019-05-26T23:10:23.928Z,5.80
2019-05-26T23:12:54.498Z,6.42
2019-05-26T23:15:25.773Z,6.27
2019-05-26T23:17:56.358Z,6.50
2019-05-26T23:20:26.929Z,6.08
2019-05-26T23:22:57.446Z,6.60
2019-05-26T23:25:28.965Z,5.70
2019-05-26T23:27:59.547Z,5.90
2019-05-26T23:30:30.434Z,6.17
2019-05-26T23:33:01.027Z,6.10
2019-05-26T23:35:31.991Z,6.12
2019-05-26T23:38:03.228Z,6.00
2019-05-26T23:40:33.977Z,5.90
2019-05-26T23:43:06.269Z,6.30
2019-05-26T23:45:36.934Z,6.30
2019-05-26T23:48:07.591Z,6.50
2019-05-26T23:50:38.110Z,6.50
2019-05-26T23:53:09.252Z,6.90
2019-05-26T23:55:39.786Z,6.00
2019-05-26T23:58:10.614Z,6.50
